Time;durP1;ratioP1;P1;durP2;ratioP2;P2;SDS_P1;SDS_P2;PMS_P1;PMS_P2;Temp;Humidity;BMP_temperature;BMP_pressure;BME280_temperature;BME280_humidity;BME280_pressure;Samples;Min_cycle;Max_cycle;Signal;HPM_P1;HPM_P2
2023/08/18 00:01:14;;;;;;;;;26.00;25.67;;;;;;;;5081914;27;46201;-72
2023/08/18 00:03:40;;;;;;;;;26.67;25.33;;;;;;;;5100192;27;45225;-73
2023/08/18 00:06:05;;;;;;;;;29.33;26.00;;;;;;;;5081747;27;45888;-73
2023/08/18 00:08:30;;;;;;;;;28.67;26.67;;;;;;;;5100492;27;45250;-73
2023/08/18 00:10:55;;;;;;;;;28.67;27.00;;;;;;;;5100119;27;45559;-73
2023/08/18 00:13:20;;;;;;;;;29.67;27.33;;;;;;;;5099903;27;45595;-73
2023/08/18 00:15:46;;;;;;;;;28.00;26.33;;;;;;;;5081983;27;46054;-73
2023/08/18 00:18:11;;;;;;;;;30.00;28.00;;;;;;;;5100096;27;45274;-72
2023/08/18 00:20:36;;;;;;;;;28.67;27.00;;;;;;;;5081601;27;45853;-72
2023/08/18 00:23:01;;;;;;;;;30.00;27.67;;;;;;;;5100044;27;46299;-72
2023/08/18 00:25:26;;;;;;;;;25.00;25.00;;;;;;;;5081600;27;45342;-73
2023/08/18 00:27:54;;;;;;;;;26.33;26.33;;;;;;;;5099737;27;45378;-72
2023/08/18 00:30:24;;;;;;;;;30.00;27.00;;;;;;;;5081956;27;45506;-72
2023/08/18 00:32:49;;;;;;;;;26.67;25.00;;;;;;;;5061111;28;48442;-72
2023/08/18 00:35:14;;;;;;;;;34.33;30.67;;;;;;;;5079219;28;45534;-72
2023/08/18 00:37:42;;;;;;;;;27.67;27.33;;;;;;;;5079509;28;45189;-72
2023/08/18 00:40:07;;;;;;;;;29.00;28.00;;;;;;;;5061013;28;46247;-73
2023/08/18 00:42:33;;;;;;;;;30.33;28.33;;;;;;;;5078994;28;45871;-72
2023/08/18 00:44:58;;;;;;;;;30.33;27.67;;;;;;;;5079336;28;45343;-72
2023/08/18 00:47:23;;;;;;;;;30.33;27.67;;;;;;;;5079399;28;45248;-73
2023/08/18 00:49:48;;;;;;;;;30.67;26.67;;;;;;;;5079293;28;45434;-72
2023/08/18 00:52:17;;;;;;;;;27.00;26.33;;;;;;;;5078999;28;46088;-72
2023/08/18 00:54:43;;;;;;;;;26.33;26.00;;;;;;;;5060849;28;45785;-73
2023/08/18 00:57:08;;;;;;;;;24.67;24.00;;;;;;;;5080873;28;45144;-72
2023/08/18 00:59:33;;;;;;;;;29.67;28.33;;;;;;;;5082631;28;45230;-72
2023/08/18 01:02:02;;;;;;;;;29.67;27.67;;;;;;;;5082499;28;46212;-72
2023/08/18 01:04:28;;;;;;;;;29.33;28.00;;;;;;;;5064444;28;45747;-73
2023/08/18 01:06:53;;;;;;;;;32.33;29.67;;;;;;;;5082529;28;45411;-72
2023/08/18 01:09:19;;;;;;;;;27.67;27.33;;;;;;;;5082460;28;45575;-72
2023/08/18 01:11:53;;;;;;;;;32.33;30.00;;;;;;;;5081925;28;45588;-72
2023/08/18 01:14:28;;;;;;;;;33.00;30.00;;;;;;;;5082427;28;45373;-72
2023/08/18 01:16:59;;;;;;;;;32.33;28.67;;;;;;;;5082500;28;45356;-72
2023/08/18 01:19:24;;;;;;;;;31.50;28.50;;;;;;;;5082108;28;45363;-72
2023/08/18 01:21:53;;;;;;;;;32.67;29.67;;;;;;;;5081996;28;45386;-72
2023/08/18 01:24:18;;;;;;;;;31.67;29.33;;;;;;;;5063984;28;45965;-72
2023/08/18 01:26:43;;;;;;;;;31.67;29.33;;;;;;;;5082430;28;45330;-72
2023/08/18 01:29:08;;;;;;;;;31.67;29.00;;;;;;;;5081784;28;45328;-72
2023/08/18 01:31:35;;;;;;;;;32.33;30.00;;;;;;;;5082171;28;46122;-73
2023/08/18 01:34:02;;;;;;;;;30.00;28.00;;;;;;;;5082093;28;45442;-72
2023/08/18 01:36:33;;;;;;;;;33.67;31.00;;;;;;;;5081928;28;45169;-72
2023/08/18 01:39:00;;;;;;;;;34.00;29.00;;;;;;;;5063675;28;47335;-72
2023/08/18 01:41:26;;;;;;;;;37.67;32.67;;;;;;;;5081729;28;45325;-72
2023/08/18 01:43:52;;;;;;;;;35.67;31.33;;;;;;;;5081628;28;45376;-72
2023/08/18 01:46:17;;;;;;;;;37.33;32.00;;;;;;;;5081990;28;45133;-73
2023/08/18 01:48:42;;;;;;;;;34.00;30.67;;;;;;;;5081884;28;45547;-72
2023/08/18 01:51:07;;;;;;;;;32.33;29.00;;;;;;;;5063292;28;48052;-72
2023/08/18 01:53:32;;;;;;;;;34.67;31.67;;;;;;;;5063240;28;45262;-72
2023/08/18 01:56:01;;;;;;;;;31.33;29.33;;;;;;;;5081952;28;45259;-72
2023/08/18 01:58:26;;;;;;;;;37.67;31.00;;;;;;;;5063198;28;47674;-72
2023/08/18 02:00:55;;;;;;;;;36.00;31.33;;;;;;;;5081604;28;45343;-72
2023/08/18 02:03:20;;;;;;;;;34.00;31.00;;;;;;;;5081583;28;45298;-72
2023/08/18 02:05:45;;;;;;;;;35.00;31.00;;;;;;;;5063258;28;45467;-72
2023/08/18 02:08:11;;;;;;;;;39.33;34.00;;;;;;;;5080933;28;45600;-72
2023/08/18 02:10:36;;;;;;;;;34.67;31.00;;;;;;;;5081609;28;45240;-72
2023/08/18 02:13:01;;;;;;;;;32.00;29.67;;;;;;;;5081408;28;45264;-72
2023/08/18 02:15:26;;;;;;;;;35.00;31.00;;;;;;;;5081584;28;45201;-72
2023/08/18 02:17:51;;;;;;;;;38.67;33.67;;;;;;;;5063081;28;45732;-72
2023/08/18 02:20:17;;;;;;;;;33.67;30.33;;;;;;;;5062822;28;47236;-72
2023/08/18 02:22:42;;;;;;;;;32.33;29.67;;;;;;;;5063153;28;45933;-72
2023/08/18 02:25:07;;;;;;;;;37.67;32.33;;;;;;;;5065966;28;45217;-73
2023/08/18 02:27:32;;;;;;;;;38.67;31.67;;;;;;;;5060801;28;45225;-73
2023/08/18 02:29:57;;;;;;;;;35.00;31.00;;;;;;;;5070717;27;47196;-72
2023/08/18 02:32:23;;;;;;;;;34.67;30.33;;;;;;;;5101679;27;45373;-72
2023/08/18 02:34:48;;;;;;;;;40.00;34.33;;;;;;;;5060846;28;45915;-72
2023/08/18 02:37:13;;;;;;;;;36.00;32.00;;;;;;;;5081030;28;45225;-72
2023/08/18 02:39:39;;;;;;;;;33.00;29.67;;;;;;;;5080991;28;45565;-72
2023/08/18 02:42:04;;;;;;;;;38.33;31.00;;;;;;;;5080569;28;45273;-72
2023/08/18 02:44:30;;;;;;;;;34.00;30.33;;;;;;;;5081199;28;45506;-72
2023/08/18 02:46:55;;;;;;;;;35.00;31.33;;;;;;;;5080920;28;45454;-72
2023/08/18 02:49:20;;;;;;;;;38.33;33.00;;;;;;;;5080836;28;45252;-72
2023/08/18 02:51:45;;;;;;;;;35.00;31.00;;;;;;;;5080822;28;45325;-72
2023/08/18 02:54:10;;;;;;;;;40.67;33.00;;;;;;;;5080785;28;45272;-72
2023/08/18 02:56:37;;;;;;;;;36.67;32.00;;;;;;;;5062524;28;46107;-72
2023/08/18 02:59:02;;;;;;;;;35.00;31.00;;;;;;;;5062233;28;46187;-72
2023/08/18 03:01:27;;;;;;;;;36.67;31.67;;;;;;;;5062227;28;45843;-72
2023/08/18 03:03:52;;;;;;;;;38.67;30.67;;;;;;;;5080928;28;45289;-72
2023/08/18 03:06:17;;;;;;;;;36.00;32.00;;;;;;;;5080480;28;45299;-72
2023/08/18 03:08:43;;;;;;;;;33.00;29.33;;;;;;;;5080508;28;46242;-72
2023/08/18 03:11:08;;;;;;;;;34.33;30.67;;;;;;;;5062449;28;45323;-72
2023/08/18 03:13:33;;;;;;;;;35.00;30.33;;;;;;;;5062178;28;45389;-72
2023/08/18 03:15:58;;;;;;;;;35.67;31.67;;;;;;;;5080483;28;45430;-72
2023/08/18 03:18:24;;;;;;;;;32.33;30.00;;;;;;;;5080530;28;46317;-72
2023/08/18 03:20:49;;;;;;;;;36.67;32.00;;;;;;;;5060936;28;46069;-72
2023/08/18 03:23:15;;;;;;;;;37.33;32.67;;;;;;;;5080620;28;45335;-72
2023/08/18 03:25:40;;;;;;;;;41.00;33.67;;;;;;;;5080246;28;45356;-73
2023/08/18 03:28:07;;;;;;;;;38.67;32.67;;;;;;;;5061750;28;47278;-73
2023/08/18 03:30:35;;;;;;;;;37.33;33.00;;;;;;;;5099189;27;45159;-72
2023/08/18 03:33:00;;;;;;;;;39.33;33.33;;;;;;;;5100840;27;45199;-72
2023/08/18 03:35:25;;;;;;;;;40.67;33.67;;;;;;;;5100394;27;45415;-73
2023/08/18 03:37:50;;;;;;;;;41.00;34.67;;;;;;;;5100501;27;45353;-72
2023/08/18 03:40:16;;;;;;;;;43.00;36.67;;;;;;;;5082106;27;46214;-72
2023/08/18 03:42:41;;;;;;;;;40.67;35.67;;;;;;;;5100563;27;45301;-73
2023/08/18 03:45:07;;;;;;;;;40.33;33.33;;;;;;;;5100367;27;45521;-72
2023/08/18 03:47:32;;;;;;;;;38.67;33.67;;;;;;;;5100534;27;45377;-72
2023/08/18 03:49:57;;;;;;;;;35.67;31.33;;;;;;;;5100285;27;45320;-73
2023/08/18 03:52:23;;;;;;;;;42.00;36.00;;;;;;;;5082036;27;45938;-72
2023/08/18 03:54:48;;;;;;;;;42.00;35.33;;;;;;;;5100274;27;45324;-72
2023/08/18 03:57:13;;;;;;;;;38.67;33.00;;;;;;;;5100111;27;45467;-72
2023/08/18 03:59:39;;;;;;;;;40.00;34.00;;;;;;;;5100415;27;45317;-72
2023/08/18 04:02:04;;;;;;;;;39.67;34.00;;;;;;;;5082009;27;45293;-72
2023/08/18 04:04:29;;;;;;;;;37.00;31.33;;;;;;;;5100291;27;45295;-72
2023/08/18 04:06:54;;;;;;;;;39.33;32.33;;;;;;;;5100005;27;45566;-72
2023/08/18 04:09:20;;;;;;;;;38.00;33.00;;;;;;;;5100325;27;45213;-72
2023/08/18 04:11:45;;;;;;;;;40.33;34.67;;;;;;;;5081626;27;45422;-72
2023/08/18 04:14:10;;;;;;;;;33.00;29.67;;;;;;;;5099976;27;45294;-72
2023/08/18 04:16:36;;;;;;;;;40.00;34.67;;;;;;;;5100077;27;45910;-72
2023/08/18 04:19:03;;;;;;;;;33.67;29.67;;;;;;;;5100123;27;45262;-72
2023/08/18 04:21:28;;;;;;;;;39.67;33.33;;;;;;;;5081685;27;45736;-72
2023/08/18 04:23:53;;;;;;;;;37.67;32.33;;;;;;;;5099951;27;45343;-72
2023/08/18 04:26:19;;;;;;;;;37.33;32.00;;;;;;;;5099944;27;45225;-72
2023/08/18 04:28:44;;;;;;;;;41.67;35.67;;;;;;;;5077322;28;45316;-72
2023/08/18 04:31:09;;;;;;;;;35.33;31.33;;;;;;;;5079971;28;45471;-73
2023/08/18 04:33:34;;;;;;;;;41.00;35.00;;;;;;;;5083035;28;45490;-72
2023/08/18 04:36:00;;;;;;;;;42.33;36.00;;;;;;;;5082566;28;45335;-72
2023/08/18 04:38:25;;;;;;;;;41.00;33.33;;;;;;;;5063938;28;46029;-72
2023/08/18 04:40:59;;;;;;;;;37.67;33.00;;;;;;;;5082923;28;45149;-72
2023/08/18 04:43:25;;;;;;;;;35.33;30.00;;;;;;;;5063983;28;46644;-72
2023/08/18 04:45:52;;;;;;;;;39.67;33.67;;;;;;;;5064074;28;47088;-72
2023/08/18 04:48:17;;;;;;;;;43.67;36.33;;;;;;;;5064530;28;45360;-72
2023/08/18 04:50:43;;;;;;;;;41.67;35.00;;;;;;;;5082711;28;45363;-72
2023/08/18 04:53:08;;;;;;;;;39.33;34.00;;;;;;;;5082573;28;45332;-72
2023/08/18 04:55:33;;;;;;;;;31.67;29.33;;;;;;;;5064275;28;47194;-72
2023/08/18 04:57:59;;;;;;;;;36.33;32.67;;;;;;;;5082632;28;45343;-72
2023/08/18 05:00:24;;;;;;;;;37.67;32.67;;;;;;;;5064315;28;45354;-73
2023/08/18 05:02:49;;;;;;;;;42.00;34.67;;;;;;;;5082530;28;45485;-72
2023/08/18 05:05:14;;;;;;;;;33.67;30.00;;;;;;;;5082280;28;46352;-74
2023/08/18 05:07:40;;;;;;;;;41.00;35.33;;;;;;;;5082413;28;45315;-72
2023/08/18 05:10:05;;;;;;;;;44.67;36.00;;;;;;;;5064278;28;45324;-72
2023/08/18 05:12:30;;;;;;;;;42.33;35.33;;;;;;;;5082184;28;45298;-72
2023/08/18 05:14:55;;;;;;;;;40.67;34.00;;;;;;;;5063813;28;47358;-72
2023/08/18 05:17:20;;;;;;;;;44.00;36.67;;;;;;;;5082394;28;45308;-72
2023/08/18 05:19:46;;;;;;;;;44.00;36.33;;;;;;;;5082488;28;45283;-72
2023/08/18 05:22:11;;;;;;;;;41.33;34.67;;;;;;;;5082111;28;45313;-72
2023/08/18 05:24:36;;;;;;;;;42.33;36.00;;;;;;;;5082394;28;46319;-72
2023/08/18 05:27:01;;;;;;;;;37.00;33.00;;;;;;;;5063698;28;45425;-72
2023/08/18 05:29:26;;;;;;;;;42.33;34.67;;;;;;;;5082216;28;45258;-72
2023/08/18 05:31:51;;;;;;;;;37.33;32.33;;;;;;;;5082141;28;45251;-72
2023/08/18 05:34:17;;;;;;;;;42.00;34.00;;;;;;;;5082045;28;45351;-72
2023/08/18 05:36:42;;;;;;;;;39.67;33.67;;;;;;;;5063626;28;45458;-72
2023/08/18 05:39:07;;;;;;;;;37.67;32.00;;;;;;;;5082131;28;45165;-72
2023/08/18 05:41:32;;;;;;;;;43.33;36.33;;;;;;;;5081911;28;45393;-72
2023/08/18 05:43:57;;;;;;;;;43.00;36.00;;;;;;;;5080727;28;45364;-72
2023/08/18 05:46:22;;;;;;;;;40.67;34.67;;;;;;;;5082041;28;45146;-72
2023/08/18 05:48:48;;;;;;;;;41.33;35.00;;;;;;;;5081979;28;45497;-72
2023/08/18 05:51:13;;;;;;;;;42.33;35.67;;;;;;;;5081726;28;45262;-71
2023/08/18 05:53:38;;;;;;;;;40.33;34.33;;;;;;;;5063253;28;48574;-71
2023/08/18 05:56:03;;;;;;;;;41.00;33.67;;;;;;;;5081868;28;45315;-74
2023/08/18 05:58:28;;;;;;;;;39.33;33.33;;;;;;;;5058903;28;45315;-71
2023/08/18 06:00:54;;;;;;;;;42.00;36.00;;;;;;;;5051537;28;47226;-71
2023/08/18 06:03:19;;;;;;;;;42.67;34.67;;;;;;;;5069645;28;46486;-71
2023/08/18 06:05:45;;;;;;;;;40.67;32.00;;;;;;;;5079005;28;45363;-73
2023/08/18 06:08:10;;;;;;;;;39.33;34.00;;;;;;;;5083031;28;45288;-73
2023/08/18 06:10:35;;;;;;;;;37.00;31.33;;;;;;;;5082947;28;45327;-73
2023/08/18 06:13:00;;;;;;;;;43.00;36.00;;;;;;;;5066916;28;47133;-74
2023/08/18 06:15:25;;;;;;;;;42.00;35.33;;;;;;;;5074042;28;45528;-72
2023/08/18 06:17:51;;;;;;;;;37.33;32.00;;;;;;;;5073869;28;45469;-73
2023/08/18 06:20:16;;;;;;;;;40.67;34.33;;;;;;;;5073166;28;45545;-72
2023/08/18 06:22:41;;;;;;;;;46.33;37.67;;;;;;;;5072675;28;46283;-74
2023/08/18 06:25:07;;;;;;;;;40.33;33.33;;;;;;;;5053029;28;45455;-72
2023/08/18 06:27:32;;;;;;;;;40.67;34.00;;;;;;;;5054144;28;45419;-73
2023/08/18 06:29:57;;;;;;;;;41.67;33.00;;;;;;;;5077167;27;45508;-73
2023/08/18 06:32:22;;;;;;;;;40.33;32.67;;;;;;;;5053823;28;46960;-73
2023/08/18 06:34:49;;;;;;;;;39.33;34.00;;;;;;;;5054553;28;45604;-74
2023/08/18 06:37:14;;;;;;;;;39.00;33.67;;;;;;;;5072169;28;45316;-74
2023/08/18 06:39:39;;;;;;;;;38.67;33.67;;;;;;;;5072286;28;45260;-73
2023/08/18 06:42:05;;;;;;;;;35.33;32.00;;;;;;;;5051817;28;47426;-74
2023/08/18 06:44:32;;;;;;;;;35.33;30.67;;;;;;;;5052820;28;45315;-73
2023/08/18 06:46:57;;;;;;;;;34.67;30.00;;;;;;;;5077766;28;45228;-75
2023/08/18 06:49:23;;;;;;;;;40.67;33.67;;;;;;;;5082147;28;45032;-74
2023/08/18 06:51:48;;;;;;;;;34.00;30.00;;;;;;;;5083465;28;45438;-74
2023/08/18 06:54:13;;;;;;;;;38.33;32.33;;;;;;;;5079987;28;45470;-74
2023/08/18 06:56:38;;;;;;;;;37.67;32.00;;;;;;;;5081279;28;45692;-73
2023/08/18 06:59:04;;;;;;;;;38.00;32.00;;;;;;;;5081868;28;45355;-75
2023/08/18 07:01:30;;;;;;;;;33.67;30.67;;;;;;;;5067772;28;45890;-75
2023/08/18 07:03:55;;;;;;;;;38.00;32.00;;;;;;;;5084306;28;45434;-74
2023/08/18 07:06:20;;;;;;;;;35.00;31.67;;;;;;;;5075792;28;45713;-74
2023/08/18 07:08:46;;;;;;;;;38.00;31.33;;;;;;;;5061350;28;45897;-76
2023/08/18 07:11:11;;;;;;;;;33.33;31.00;;;;;;;;5072446;28;45270;-74
2023/08/18 07:13:36;;;;;;;;;38.33;32.33;;;;;;;;5063875;28;45390;-74
2023/08/18 07:16:02;;;;;;;;;33.67;30.67;;;;;;;;5080508;28;45400;-76
2023/08/18 07:18:27;;;;;;;;;37.00;32.00;;;;;;;;5074050;28;45394;-75
2023/08/18 07:20:52;;;;;;;;;32.33;29.00;;;;;;;;5079464;28;45393;-75
2023/08/18 07:23:18;;;;;;;;;34.33;30.67;;;;;;;;5079426;28;45410;-76
2023/08/18 07:25:44;;;;;;;;;37.00;31.67;;;;;;;;5079785;28;45352;-73
2023/08/18 07:28:10;;;;;;;;;32.33;29.33;;;;;;;;5079154;28;45551;-73
2023/08/18 07:30:36;;;;;;;;;34.33;31.00;;;;;;;;5078837;28;45577;-74
2023/08/18 07:33:01;;;;;;;;;33.00;30.33;;;;;;;;5079675;28;45363;-74
2023/08/18 07:35:26;;;;;;;;;34.67;30.33;;;;;;;;5079105;28;45335;-74
2023/08/18 07:37:52;;;;;;;;;33.67;31.00;;;;;;;;5080185;28;45254;-73
2023/08/18 07:40:17;;;;;;;;;32.33;29.00;;;;;;;;5079861;28;46143;-73
2023/08/18 07:42:44;;;;;;;;;30.33;27.67;;;;;;;;5061558;28;45985;-74
2023/08/18 07:45:09;;;;;;;;;31.33;28.00;;;;;;;;5080291;28;45282;-74
2023/08/18 07:47:34;;;;;;;;;36.00;31.00;;;;;;;;5080074;28;45464;-74
2023/08/18 07:49:59;;;;;;;;;36.33;31.33;;;;;;;;5080212;28;46239;-74
2023/08/18 07:52:25;;;;;;;;;32.00;29.67;;;;;;;;5079636;28;45275;-74
2023/08/18 07:54:50;;;;;;;;;33.33;29.33;;;;;;;;5061573;28;45355;-74
2023/08/18 07:57:16;;;;;;;;;34.33;30.00;;;;;;;;5079915;28;45536;-74
2023/08/18 07:59:41;;;;;;;;;34.67;30.67;;;;;;;;5080205;28;46148;-74
2023/08/18 08:02:07;;;;;;;;;31.67;29.67;;;;;;;;5061657;28;45437;-74
2023/08/18 08:04:32;;;;;;;;;29.67;28.00;;;;;;;;5061635;28;45434;-74
2023/08/18 08:06:57;;;;;;;;;29.67;28.00;;;;;;;;5060699;28;45427;-74
2023/08/18 08:09:25;;;;;;;;;29.33;28.33;;;;;;;;5079933;28;45321;-74
2023/08/18 08:11:51;;;;;;;;;31.33;28.33;;;;;;;;5079326;28;45242;-74
2023/08/18 08:14:17;;;;;;;;;32.00;29.00;;;;;;;;5079847;28;45228;-73
2023/08/18 08:16:42;;;;;;;;;30.00;28.00;;;;;;;;5079654;28;45232;-74
2023/08/18 08:19:09;;;;;;;;;26.67;26.00;;;;;;;;5079645;28;45205;-75
2023/08/18 08:21:34;;;;;;;;;26.00;24.67;;;;;;;;5061188;28;45332;-75
2023/08/18 08:23:59;;;;;;;;;28.00;27.67;;;;;;;;5079667;28;45327;-74
2023/08/18 08:26:25;;;;;;;;;29.00;27.33;;;;;;;;5079269;28;45588;-74
2023/08/18 08:28:50;;;;;;;;;28.00;27.33;;;;;;;;5065829;27;47617;-74
2023/08/18 08:31:15;;;;;;;;;24.00;24.00;;;;;;;;5066308;27;45346;-75
2023/08/18 08:33:40;;;;;;;;;27.00;25.00;;;;;;;;5055243;28;45488;-76
2023/08/18 08:36:05;;;;;;;;;24.00;23.33;;;;;;;;5079182;28;45676;-75
2023/08/18 08:38:31;;;;;;;;;24.33;24.33;;;;;;;;5079408;28;45250;-74
2023/08/18 08:40:57;;;;;;;;;27.67;26.00;;;;;;;;5080252;28;45320;-75
2023/08/18 08:43:22;;;;;;;;;27.00;26.00;;;;;;;;5080415;28;45318;-75
2023/08/18 08:45:47;;;;;;;;;22.67;22.67;;;;;;;;5081771;28;45321;-75
2023/08/18 08:48:13;;;;;;;;;25.33;23.67;;;;;;;;5080501;28;46295;-74
2023/08/18 08:50:40;;;;;;;;;24.33;23.67;;;;;;;;5080781;28;45305;-75
2023/08/18 08:53:06;;;;;;;;;26.67;25.00;;;;;;;;5060869;28;45661;-74
2023/08/18 08:55:33;;;;;;;;;23.67;23.33;;;;;;;;5061049;28;46489;-75
2023/08/18 08:57:59;;;;;;;;;22.67;22.33;;;;;;;;5078259;28;45350;-75
2023/08/18 09:00:25;;;;;;;;;27.67;26.33;;;;;;;;5079450;28;45374;-75
2023/08/18 09:02:50;;;;;;;;;26.00;25.00;;;;;;;;5080609;28;45418;-76
2023/08/18 09:05:15;;;;;;;;;24.33;23.00;;;;;;;;5078863;28;45294;-75
2023/08/18 09:07:40;;;;;;;;;21.00;20.00;;;;;;;;5078908;28;45323;-74
2023/08/18 09:10:06;;;;;;;;;19.67;18.67;;;;;;;;5079174;28;45262;-75
2023/08/18 09:12:32;;;;;;;;;20.67;19.67;;;;;;;;5079341;28;45569;-75
2023/08/18 09:14:58;;;;;;;;;21.33;20.00;;;;;;;;5084169;28;45379;-74
2023/08/18 09:17:26;;;;;;;;;19.33;19.00;;;;;;;;5081959;28;45368;-75
2023/08/18 09:19:55;;;;;;;;;20.33;20.00;;;;;;;;5086556;28;45338;-73
2023/08/18 09:22:23;;;;;;;;;20.33;20.33;;;;;;;;5091919;28;45244;-75
2023/08/18 09:24:49;;;;;;;;;19.33;18.67;;;;;;;;5072480;28;47235;-75
2023/08/18 09:27:15;;;;;;;;;18.33;17.67;;;;;;;;5092925;28;46097;-75
2023/08/18 09:29:40;;;;;;;;;22.00;22.00;;;;;;;;5103236;27;45280;-74
2023/08/18 09:32:08;;;;;;;;;22.33;21.00;;;;;;;;5105222;27;45591;-77
2023/08/18 09:34:42;;;;;;;;;22.00;20.67;;;;;;;;5112387;27;45087;-74
2023/08/18 09:37:07;;;;;;;;;19.67;18.67;;;;;;;;5093519;27;47357;-75
2023/08/18 09:39:32;;;;;;;;;21.67;19.67;;;;;;;;5111961;27;45527;-74
2023/08/18 09:41:58;;;;;;;;;19.00;18.00;;;;;;;;5109091;27;45195;-74
2023/08/18 09:44:24;;;;;;;;;19.00;18.00;;;;;;;;5088816;27;47345;-75
2023/08/18 09:46:58;;;;;;;;;19.67;19.67;;;;;;;;5102473;27;45274;-76
2023/08/18 09:49:24;;;;;;;;;18.33;18.33;;;;;;;;5083780;27;45257;-75
2023/08/18 09:51:51;;;;;;;;;17.67;17.67;;;;;;;;5102176;27;45238;-75
2023/08/18 09:54:17;;;;;;;;;18.33;17.67;;;;;;;;5084174;27;46466;-74
2023/08/18 09:56:44;;;;;;;;;17.33;17.33;;;;;;;;5101938;27;46797;-75
2023/08/18 09:59:19;;;;;;;;;19.00;18.33;;;;;;;;5102053;27;45302;-76
2023/08/18 10:01:46;;;;;;;;;16.33;14.67;;;;;;;;5102005;27;45371;-75
2023/08/18 10:04:11;;;;;;;;;16.00;16.00;;;;;;;;5083923;27;45983;-77
2023/08/18 10:06:39;;;;;;;;;17.67;17.33;;;;;;;;5084345;27;48136;-77
2023/08/18 10:09:04;;;;;;;;;16.00;15.33;;;;;;;;5086433;27;45698;-76
2023/08/18 10:11:30;;;;;;;;;17.00;16.67;;;;;;;;5102512;27;45348;-77
2023/08/18 10:13:56;;;;;;;;;18.00;18.00;;;;;;;;5105226;27;45450;-77
2023/08/18 10:16:22;;;;;;;;;15.67;15.67;;;;;;;;5102506;27;46230;-77
2023/08/18 10:18:54;;;;;;;;;16.67;16.67;;;;;;;;5102518;27;45376;-79
2023/08/18 10:21:19;;;;;;;;;15.00;15.00;;;;;;;;5082973;27;45355;-76
2023/08/18 10:23:46;;;;;;;;;19.00;18.00;;;;;;;;5101721;27;45307;-77
2023/08/18 10:26:12;;;;;;;;;18.00;18.00;;;;;;;;5083365;27;48420;-78
2023/08/18 10:28:38;;;;;;;;;17.67;17.33;;;;;;;;5098616;27;45326;-78
2023/08/18 10:31:11;;;;;;;;;14.33;14.33;;;;;;;;5080219;28;45429;-76
2023/08/18 10:33:43;;;;;;;;;16.67;16.67;;;;;;;;5081470;28;45289;-77
2023/08/18 10:36:09;;;;;;;;;14.33;14.33;;;;;;;;5084227;28;45279;-77
2023/08/18 10:38:35;;;;;;;;;16.00;15.00;;;;;;;;5081764;28;45504;-77
2023/08/18 10:41:01;;;;;;;;;15.00;14.00;;;;;;;;5080603;28;45477;-77
2023/08/18 10:43:27;;;;;;;;;14.00;13.33;;;;;;;;5080237;28;45408;-77
2023/08/18 10:45:56;;;;;;;;;15.67;14.00;;;;;;;;5080620;28;46149;-77
2023/08/18 10:48:22;;;;;;;;;15.67;14.67;;;;;;;;5062367;28;45305;-78
2023/08/18 10:50:47;;;;;;;;;17.00;16.00;;;;;;;;5047467;28;45324;-77
2023/08/18 10:53:13;;;;;;;;;16.33;16.33;;;;;;;;5079061;28;45491;-77
2023/08/18 10:55:39;;;;;;;;;14.67;14.00;;;;;;;;5076534;28;45842;-77
2023/08/18 10:58:04;;;;;;;;;14.33;13.67;;;;;;;;5065140;28;45411;-77
2023/08/18 11:00:30;;;;;;;;;13.33;13.00;;;;;;;;5055620;28;45352;-77
2023/08/18 11:02:55;;;;;;;;;13.00;13.00;;;;;;;;5077202;28;45521;-75
2023/08/18 11:05:22;;;;;;;;;14.33;13.67;;;;;;;;5070271;28;45448;-76
2023/08/18 11:07:47;;;;;;;;;12.67;12.67;;;;;;;;5046526;28;46011;-77
2023/08/18 11:10:19;;;;;;;;;12.33;11.33;;;;;;;;5080451;28;45465;-77
2023/08/18 11:12:46;;;;;;;;;8.00;7.67;;;;;;;;5070937;28;45623;-77
2023/08/18 11:15:12;;;;;;;;;12.33;12.00;;;;;;;;5069762;28;45468;-77
2023/08/18 11:17:37;;;;;;;;;11.00;11.00;;;;;;;;5070434;28;45415;-76
2023/08/18 11:20:07;;;;;;;;;10.33;10.33;;;;;;;;5071173;28;45501;-77
2023/08/18 11:22:33;;;;;;;;;12.67;12.67;;;;;;;;5074829;27;45437;-76
2023/08/18 11:24:58;;;;;;;;;14.00;13.67;;;;;;;;5084953;27;45675;-76
2023/08/18 11:27:23;;;;;;;;;12.33;12.33;;;;;;;;5099470;27;45415;-75
2023/08/18 11:29:49;;;;;;;;;15.33;14.67;;;;;;;;5079284;27;45413;-78
2023/08/18 11:32:14;;;;;;;;;13.67;13.00;;;;;;;;5074799;27;45384;-76
2023/08/18 11:34:39;;;;;;;;;13.33;13.33;;;;;;;;5050515;28;47084;-76
2023/08/18 11:37:10;;;;;;;;;12.67;12.00;;;;;;;;5064882;28;45285;-75
2023/08/18 11:39:35;;;;;;;;;15.00;15.00;;;;;;;;5068875;27;45350;-74
2023/08/18 11:42:00;;;;;;;;;15.00;15.00;;;;;;;;5068042;28;45408;-74
2023/08/18 11:44:26;;;;;;;;;13.33;11.33;;;;;;;;5062983;27;45370;-73
2023/08/18 11:46:51;;;;;;;;;14.00;14.00;;;;;;;;5061849;28;45385;-74
2023/08/18 11:49:17;;;;;;;;;13.00;13.00;;;;;;;;5061839;27;45332;-74
2023/08/18 11:51:59;;;;;;;;;12.33;12.33;;;;;;;;5080022;28;45352;-74
2023/08/18 11:54:25;;;;;;;;;13.67;13.67;;;;;;;;5079486;27;45580;-74
2023/08/18 11:56:51;;;;;;;;;13.67;13.00;;;;;;;;5062627;28;45337;-74
2023/08/18 11:59:20;;;;;;;;;14.67;14.00;;;;;;;;5079591;27;45327;-74
2023/08/18 12:01:45;;;;;;;;;12.00;12.00;;;;;;;;5073016;27;45425;-75
2023/08/18 12:04:11;;;;;;;;;16.00;14.33;;;;;;;;5058139;28;47535;-74
2023/08/18 12:06:36;;;;;;;;;13.67;13.67;;;;;;;;5098900;27;45341;-74
2023/08/18 12:09:05;;;;;;;;;13.67;13.67;;;;;;;;5057894;28;45331;-74
2023/08/18 12:11:30;;;;;;;;;14.67;14.00;;;;;;;;5060239;28;45799;-75
2023/08/18 12:13:55;;;;;;;;;15.33;14.67;;;;;;;;5080017;28;45385;-74
2023/08/18 12:16:20;;;;;;;;;14.00;13.00;;;;;;;;5080031;27;45742;-74
2023/08/18 12:18:46;;;;;;;;;15.00;14.67;;;;;;;;5081443;28;45284;-74
2023/08/18 12:21:11;;;;;;;;;13.00;13.00;;;;;;;;5083400;27;45417;-75
2023/08/18 12:23:37;;;;;;;;;12.33;12.33;;;;;;;;5086015;28;45299;-76
2023/08/18 12:26:03;;;;;;;;;20.33;20.33;;;;;;;;5075723;27;45190;-75
2023/08/18 12:28:28;;;;;;;;;14.33;14.00;;;;;;;;5098970;27;45326;-75
2023/08/18 12:30:54;;;;;;;;;17.00;15.67;;;;;;;;5079047;27;45310;-75
2023/08/18 12:33:19;;;;;;;;;15.67;15.67;;;;;;;;5060247;28;47245;-76
2023/08/18 12:35:44;;;;;;;;;16.00;16.00;;;;;;;;5076784;27;45329;-75
2023/08/18 12:38:10;;;;;;;;;16.00;15.33;;;;;;;;5058656;28;45417;-75
2023/08/18 12:40:35;;;;;;;;;14.33;14.33;;;;;;;;5077010;27;45322;-75
2023/08/18 12:43:00;;;;;;;;;15.00;15.00;;;;;;;;5077029;28;45329;-75
2023/08/18 12:45:26;;;;;;;;;15.00;15.00;;;;;;;;5079812;27;45315;-75
2023/08/18 12:47:51;;;;;;;;;9.00;9.00;;;;;;;;5079802;28;45232;-76
2023/08/18 12:50:16;;;;;;;;;14.67;14.67;;;;;;;;5075576;27;45487;-76
2023/08/18 12:52:41;;;;;;;;;14.33;14.33;;;;;;;;5084375;28;46267;-76
2023/08/18 12:55:07;;;;;;;;;16.00;16.00;;;;;;;;5084522;28;45206;-77
2023/08/18 12:57:32;;;;;;;;;17.33;16.67;;;;;;;;5080418;28;45727;-76
2023/08/18 12:59:57;;;;;;;;;11.67;11.67;;;;;;;;5081561;28;46459;-75
2023/08/18 13:02:23;;;;;;;;;13.33;13.33;;;;;;;;5070323;28;45726;-76
2023/08/18 13:04:48;;;;;;;;;12.00;12.00;;;;;;;;5060212;28;45633;-76
2023/08/18 13:07:13;;;;;;;;;14.67;13.33;;;;;;;;5072576;28;45352;-77
2023/08/18 13:09:38;;;;;;;;;12.67;12.67;;;;;;;;5072135;28;45577;-78
2023/08/18 13:12:06;;;;;;;;;12.67;12.00;;;;;;;;5042406;28;47275;-77
2023/08/18 13:14:31;;;;;;;;;10.67;10.33;;;;;;;;5054969;28;46627;-77
2023/08/18 13:16:57;;;;;;;;;12.33;12.33;;;;;;;;5081239;28;45439;-78
2023/08/18 13:19:22;;;;;;;;;11.33;11.00;;;;;;;;5079550;27;45525;-77
2023/08/18 13:21:47;;;;;;;;;10.00;9.67;;;;;;;;5081986;28;45304;-75
2023/08/18 13:24:12;;;;;;;;;13.00;13.00;;;;;;;;5091155;27;45363;-76
2023/08/18 13:26:39;;;;;;;;;11.33;11.33;;;;;;;;5084183;27;45360;-76
2023/08/18 13:29:05;;;;;;;;;13.33;13.33;;;;;;;;5095289;27;45667;-76
2023/08/18 13:31:30;;;;;;;;;10.75;10.75;;;;;;;;5063721;28;46531;-76
2023/08/18 13:33:55;;;;;;;;;15.00;12.33;;;;;;;;5081908;27;45351;-75
2023/08/18 13:36:20;;;;;;;;;10.00;10.00;;;;;;;;5082002;28;45339;-75
2023/08/18 13:38:47;;;;;;;;;11.00;10.75;;;;;;;;5081717;27;45336;-75
2023/08/18 13:41:12;;;;;;;;;11.67;11.67;;;;;;;;5062935;28;47598;-76
2023/08/18 13:43:37;;;;;;;;;13.33;13.33;;;;;;;;5071664;27;45335;-75
2023/08/18 13:46:02;;;;;;;;;12.00;12.00;;;;;;;;5071419;28;45289;-76
2023/08/18 13:48:27;;;;;;;;;13.67;13.67;;;;;;;;5045063;27;46173;-76
2023/08/18 13:50:54;;;;;;;;;13.00;13.00;;;;;;;;5081418;28;46345;-76
2023/08/18 13:53:19;;;;;;;;;12.67;12.67;;;;;;;;5063330;27;45462;-75
2023/08/18 13:55:45;;;;;;;;;12.00;12.00;;;;;;;;5063479;28;45341;-76
2023/08/18 13:58:10;;;;;;;;;12.67;10.67;;;;;;;;5062843;28;46259;-77
2023/08/18 14:00:35;;;;;;;;;15.33;14.67;;;;;;;;5091292;27;45481;-76
2023/08/18 14:03:00;;;;;;;;;16.33;14.67;;;;;;;;5081331;28;45394;-76
2023/08/18 14:05:26;;;;;;;;;15.67;14.00;;;;;;;;5064150;28;45330;-75
2023/08/18 14:07:51;;;;;;;;;14.00;14.00;;;;;;;;5075056;28;45327;-77